createdAt,value
2022-11-08T00:03:16.094Z,38.35
2022-11-08T00:08:23.276Z,38.35
2022-11-08T00:13:30.474Z,38.21
2022-11-08T00:18:37.665Z,38.04
2022-11-08T00:23:44.863Z,37.94
2022-11-08T00:28:52.055Z,38.02
2022-11-08T00:33:59.273Z,38.05
2022-11-08T00:39:06.542Z,38.09
2022-11-08T00:44:13.766Z,38.22
2022-11-08T00:49:20.991Z,38.03
2022-11-08T00:54:28.186Z,38.20
2022-11-08T00:59:35.424Z,38.23
2022-11-08T01:04:42.611Z,38.32
2022-11-08T01:09:49.844Z,37.53
2022-11-08T01:14:57.078Z,37.76
2022-11-08T01:20:04.201Z,37.82
2022-11-08T01:25:11.367Z,38.01
2022-11-08T01:30:18.564Z,38.03
2022-11-08T01:35:25.763Z,37.61
2022-11-08T01:40:33.185Z,37.83
2022-11-08T01:45:40.335Z,37.83
2022-11-08T01:50:47.552Z,37.60
2022-11-08T01:55:54.816Z,37.52
2022-11-08T02:01:02.100Z,37.46
2022-11-08T02:06:09.259Z,37.42
2022-11-08T02:11:16.428Z,37.34
2022-11-08T02:16:23.656Z,37.45
2022-11-08T02:21:30.891Z,37.59
2022-11-08T02:26:38.102Z,37.72
2022-11-08T02:31:45.257Z,37.99
2022-11-08T02:36:52.473Z,37.97
2022-11-08T02:41:59.717Z,38.18
2022-11-08T02:47:06.905Z,38.40
2022-11-08T02:52:14.111Z,38.90
2022-11-08T02:57:21.339Z,38.95
2022-11-08T03:02:28.652Z,38.79
2022-11-08T03:07:35.775Z,38.83
2022-11-08T03:12:43.144Z,38.90
2022-11-08T03:17:50.204Z,38.80
2022-11-08T03:22:57.437Z,38.75
2022-11-08T03:28:04.718Z,38.59
2022-11-08T03:33:11.949Z,38.57
2022-11-08T03:38:19.470Z,38.51
2022-11-08T03:43:26.370Z,38.45
2022-11-08T03:48:33.563Z,38.41
2022-11-08T03:53:40.878Z,38.35
2022-11-08T03:58:48.100Z,38.14
2022-11-08T04:03:55.218Z,38.24
2022-11-08T04:09:02.493Z,38.25
2022-11-08T04:14:09.710Z,38.15
2022-11-08T04:19:16.902Z,37.75
2022-11-08T04:24:24.107Z,38.09
2022-11-08T04:29:31.323Z,38.32
2022-11-08T04:34:38.502Z,38.44
2022-11-08T04:39:45.671Z,38.47
2022-11-08T04:44:52.919Z,38.36
2022-11-08T04:50:00.129Z,38.33
2022-11-08T04:55:07.326Z,38.29
2022-11-08T05:00:14.686Z,38.24
2022-11-08T05:05:21.753Z,38.25
2022-11-08T05:10:28.956Z,38.16
2022-11-08T05:15:36.226Z,38.23
2022-11-08T05:20:43.390Z,38.13
2022-11-08T05:25:50.571Z,38.18
2022-11-08T05:30:57.813Z,38.13
2022-11-08T05:36:06.332Z,38.09
2022-11-08T05:41:12.920Z,37.77
2022-11-08T05:46:20.330Z,38.16
2022-11-08T05:51:27.562Z,38.07
2022-11-08T05:56:34.852Z,38.07
2022-11-08T06:01:42.241Z,38.16
2022-11-08T06:06:49.369Z,38.11
2022-11-08T06:11:56.633Z,38.24
2022-11-08T06:17:03.915Z,38.27
2022-11-08T06:22:11.351Z,38.44
2022-11-08T06:27:18.571Z,38.56
2022-11-08T06:32:25.802Z,38.68
2022-11-08T06:37:33.020Z,38.52
2022-11-08T06:42:40.250Z,38.54
2022-11-08T06:47:47.531Z,38.59
2022-11-08T06:52:54.683Z,39.07
2022-11-08T06:58:01.870Z,39.48
2022-11-08T07:03:09.215Z,39.30
2022-11-08T07:08:22.282Z,39.30
2022-11-08T07:13:23.487Z,39.23
2022-11-08T07:18:30.825Z,39.24
2022-11-08T07:23:37.899Z,39.34
2022-11-08T07:28:45.120Z,39.32
2022-11-08T07:33:52.330Z,39.31
2022-11-08T07:39:03.832Z,39.25
2022-11-08T07:44:06.761Z,39.22
2022-11-08T07:49:14.047Z,39.09
2022-11-08T07:54:21.240Z,39.09
2022-11-08T07:59:28.394Z,39.15
2022-11-08T08:04:35.609Z,39.04
2022-11-08T08:09:42.841Z,38.82
2022-11-08T08:14:50.044Z,38.68
2022-11-08T08:19:57.297Z,38.65
2022-11-08T08:25:04.472Z,38.60
2022-11-08T08:30:11.698Z,38.54
2022-11-08T08:35:18.964Z,38.52
2022-11-08T08:40:26.323Z,39.76
2022-11-08T08:45:33.487Z,39.56
2022-11-08T08:50:40.769Z,39.57
2022-11-08T08:55:47.909Z,39.41
2022-11-08T09:06:02.326Z,39.35
2022-11-08T09:11:09.476Z,39.38
2022-11-08T09:16:16.746Z,39.62
2022-11-08T09:21:24.137Z,39.50
2022-11-08T09:26:31.242Z,39.55
2022-11-08T09:31:38.458Z,39.81
2022-11-08T09:36:45.739Z,39.83
2022-11-08T09:41:55.484Z,39.97
2022-11-08T09:47:00.225Z,40.09
2022-11-08T09:52:07.492Z,40.25
2022-11-08T09:57:14.612Z,40.09
2022-11-08T10:02:21.958Z,40.22
2022-11-08T10:07:29.221Z,40.38
2022-11-08T10:12:36.503Z,40.36
2022-11-08T10:17:43.733Z,40.51
2022-11-08T10:22:50.957Z,40.52
2022-11-08T10:27:58.183Z,40.41
2022-11-08T10:33:05.492Z,40.92
2022-11-08T10:38:12.786Z,40.83
2022-11-08T10:43:20.352Z,40.57
2022-11-08T10:48:27.159Z,40.57
2022-11-08T10:53:34.434Z,40.77
2022-11-08T10:58:41.676Z,40.73
2022-11-08T11:03:48.838Z,40.75
2022-11-08T11:08:56.069Z,40.76
2022-11-08T11:14:03.275Z,40.87
2022-11-08T11:19:10.505Z,40.89
2022-11-08T11:24:19.322Z,40.93
2022-11-08T11:29:25.082Z,40.96
2022-11-08T11:34:32.475Z,40.99
2022-11-08T11:39:39.742Z,40.99
2022-11-08T11:44:46.937Z,41.00
2022-11-08T11:49:54.168Z,41.08
2022-11-08T11:55:01.480Z,41.15
2022-11-08T12:00:08.712Z,41.15
2022-11-08T12:05:15.935Z,41.07
2022-11-08T12:10:23.224Z,40.99
2022-11-08T12:15:30.404Z,40.97
2022-11-08T12:20:37.609Z,41.00
2022-11-08T12:25:44.799Z,41.16
2022-11-08T12:30:52.029Z,41.17
2022-11-08T12:35:59.222Z,41.23
2022-11-08T12:41:06.513Z,41.24
2022-11-08T12:46:13.738Z,41.25
2022-11-08T12:51:20.956Z,41.31
2022-11-08T12:56:28.192Z,41.36
2022-11-08T13:01:35.459Z,41.44
2022-11-08T13:06:42.795Z,41.55
2022-11-08T13:11:50.050Z,41.47
2022-11-08T13:16:57.291Z,41.44
2022-11-08T13:22:04.567Z,41.40
2022-11-08T13:27:12.029Z,41.45
2022-11-08T13:32:19.524Z,41.44
2022-11-08T13:37:26.704Z,41.51
2022-11-08T13:42:34.334Z,41.44
2022-11-08T13:47:41.462Z,41.41
2022-11-08T13:52:48.768Z,41.39
2022-11-08T13:57:55.990Z,41.45
2022-11-08T14:03:03.145Z,41.37
2022-11-08T14:08:10.457Z,41.47
2022-11-08T14:13:18.197Z,41.54
2022-11-08T14:18:24.940Z,41.53
2022-11-08T14:23:32.123Z,41.57
2022-11-08T14:28:39.313Z,41.63
2022-11-08T14:33:46.464Z,41.68
2022-11-08T14:38:53.976Z,41.72
2022-11-08T14:44:01.303Z,41.82
2022-11-08T14:49:08.493Z,41.92
2022-11-08T14:54:15.747Z,42.01
2022-11-08T14:59:23.225Z,42.02
2022-11-08T15:04:30.537Z,42.05
2022-11-08T15:09:38.327Z,42.01
2022-11-08T15:14:45.849Z,42.01
2022-11-08T15:19:53.101Z,41.97
2022-11-08T15:25:01.485Z,41.95
2022-11-08T15:30:08.664Z,42.02
2022-11-08T15:35:16.115Z,42.03
2022-11-08T15:40:23.534Z,42.05
2022-11-08T15:45:30.711Z,42.00
2022-11-08T15:50:37.919Z,42.00
2022-11-08T15:55:45.418Z,42.06
2022-11-08T16:00:53.160Z,42.11
2022-11-08T16:06:00.772Z,42.08
2022-11-08T16:11:08.473Z,42.07
2022-11-08T16:16:16.108Z,42.17
2022-11-08T16:21:23.797Z,42.23
2022-11-08T16:26:31.346Z,42.37
2022-11-08T16:31:38.824Z,42.52
2022-11-08T16:36:45.890Z,42.63
2022-11-08T16:41:55.689Z,42.69
2022-11-08T16:47:03.223Z,42.71
2022-11-08T16:52:10.540Z,42.63
2022-11-08T16:57:34.318Z,42.66
2022-11-08T17:02:25.515Z,42.60
2022-11-08T17:07:32.626Z,42.60
2022-11-08T17:12:39.872Z,42.63
2022-11-08T17:17:47.155Z,42.62
2022-11-08T17:22:54.656Z,42.56
2022-11-08T17:28:02.317Z,42.41
2022-11-08T17:33:09.807Z,42.40
2022-11-08T17:38:20.164Z,42.40
2022-11-08T17:43:27.794Z,42.41
2022-11-08T17:48:35.457Z,42.44
2022-11-08T17:53:43.118Z,42.44
2022-11-08T17:58:50.419Z,42.48
2022-11-08T18:03:58.050Z,42.56
2022-11-08T18:09:05.698Z,42.76
2022-11-08T18:14:13.356Z,42.86
2022-11-08T18:19:22.023Z,42.86
2022-11-08T18:24:29.324Z,42.90
2022-11-08T18:29:36.825Z,42.82
2022-11-08T18:34:44.462Z,42.79
2022-11-08T18:39:52.052Z,42.73
2022-11-08T18:45:00.100Z,42.85
2022-11-08T18:50:07.909Z,42.79
2022-11-08T18:55:15.517Z,42.75
2022-11-08T19:00:23.322Z,42.63
2022-11-08T19:05:31.067Z,42.62
2022-11-08T19:10:38.380Z,42.54
2022-11-08T19:15:45.753Z,42.60
2022-11-08T19:20:53.546Z,42.60
2022-11-08T19:26:01.901Z,42.66
2022-11-08T19:31:10.299Z,42.81
2022-11-08T19:36:19.005Z,43.43
2022-11-08T19:41:26.700Z,43.93
2022-11-08T19:46:34.420Z,43.85
2022-11-08T19:51:42.048Z,44.05
2022-11-08T19:57:04.217Z,44.13
2022-11-08T20:01:58.546Z,44.19
2022-11-08T20:07:06.227Z,44.01
2022-11-08T20:12:13.922Z,44.06
2022-11-08T20:17:21.639Z,43.79
2022-11-08T20:22:29.267Z,43.84
2022-11-08T20:27:36.702Z,43.83
2022-11-08T20:32:44.268Z,43.30
2022-11-08T20:37:51.904Z,43.22
2022-11-08T20:42:59.606Z,43.48
2022-11-08T20:48:07.166Z,44.12
2022-11-08T20:53:15.039Z,43.78
2022-11-08T20:58:22.620Z,43.75
2022-11-08T21:03:30.103Z,43.58
2022-11-08T21:13:47.333Z,43.41
2022-11-08T21:18:54.948Z,43.46
2022-11-08T21:24:02.350Z,43.43
2022-11-08T21:29:10.078Z,43.58
2022-11-08T21:34:17.810Z,42.89
2022-11-08T21:39:25.888Z,42.79
2022-11-08T21:44:33.326Z,42.56
2022-11-08T21:49:40.724Z,42.59
2022-11-08T21:54:47.881Z,42.49
2022-11-08T21:59:55.010Z,42.80
2022-11-08T22:05:02.240Z,42.87
2022-11-08T22:11:58.644Z,42.34
2022-11-08T22:17:05.835Z,42.60
2022-11-08T22:22:13.061Z,42.62
2022-11-08T22:27:21.281Z,42.40
2022-11-08T22:32:28.579Z,42.40
2022-11-08T22:37:35.801Z,42.27
2022-11-08T22:42:43.064Z,42.02
2022-11-08T22:50:54.955Z,41.70
2022-11-08T22:56:06.958Z,41.91
2022-11-08T23:01:09.524Z,41.65
2022-11-08T23:06:16.727Z,41.22
2022-11-08T23:11:23.922Z,41.27
2022-11-08T23:16:31.181Z,41.57
2022-11-08T23:21:38.325Z,41.37
2022-11-08T23:26:45.508Z,41.31
2022-11-08T23:31:52.803Z,41.28
2022-11-08T23:36:59.944Z,40.94
2022-11-08T23:42:07.084Z,40.54
2022-11-08T23:47:14.243Z,40.54
2022-11-08T23:52:21.399Z,40.39
2022-11-08T23:57:28.570Z,40.20
